Date,TemperatureHighF,TemperatureAvgF,TemperatureLowF,DewpointHighF,DewpointAvgF,DewpointLowF,HumidityHigh,HumidityAvg,HumidityLow,PressureMaxIn,PressureMinIn,WindSpeedMaxMPH,WindSpeedAvgMPH,GustSpeedMaxMPH,PrecipitationSumIn
2013-10-1,92,75,60,65,58,53,87,58,29,28.41,28.31,19,8,19,0.00
2013-10-2,90,78,67,71,66,60,93,68,45,28.44,28.30,18,7,18,0.00
2013-10-3,94,80,69,72,68,62,99,69,36,28.36,28.20,20,8,22,0.00
2013-10-4,92,81,62,69,66,53,87,62,41,28.42,28.19,29,9,29,0.13
2013-10-5,72,60,51,53,35,24,71,41,18,28.67,28.42,27,8,29,0.13
2013-10-6,81,62,43,81,36,18,77,39,10,28.70,28.56,20,4,20,0.00
2013-10-7,84,67,50,47,40,29,81,42,14,28.70,28.56,10,1,10,0.00
2013-10-8,88,69,52,44,37,24,64,36,11,28.59,28.42,17,5,17,0.00
2013-10-9,84,69,53,50,45,39,78,46,22,28.53,28.40,20,8,20,0.00
2013-10-10,87,73,58,62,57,50,84,59,35,28.50,28.28,24,9,24,0.00
2013-10-11,90,75,63,90,59,18,93,40,10,28.37,28.26,26,6,26,0.00
2013-10-12,80,67,57,50,45,32,65,46,29,28.65,28.36,21,7,21,0.00
2013-10-13,74,66,58,68,59,49,98,78,65,28.77,28.61,21,5,21,0.00
2013-10-14,79,71,67,71,68,66,99,91,75,28.63,28.34,14,5,14,0.02
2013-10-15,71,59,52,70,46,38,99,63,43,28.66,28.39,26,8,26,0.02
2013-10-16,58,52,44,42,38,35,80,61,46,28.71,28.59,14,4,14,0.00
2013-10-17,77,56,37,46,40,33,91,60,22,28.61,28.44,12,2,12,0.00
2013-10-18,61,50,38,56,46,36,99,86,55,28.73,28.43,23,6,23,0.18
2013-10-19,70,49,32,45,34,20,99,67,15,28.72,28.53,19,4,19,0.01
2013-10-20,78,59,41,53,44,37,87,62,34,28.53,28.26,15,4,18,0.00
2013-10-21,67,57,48,51,41,32,86,58,29,28.66,28.36,27,8,27,0.00
2013-10-22,84,60,41,42,35,21,85,49,10,28.66,28.52,20,5,20,0.00
2013-10-23,88,65,44,87,44,18,83,39,10,28.62,28.48,24,4,24,0.00
2013-10-24,69,58,48,49,42,37,83,58,34,28.84,28.57,27,6,27,0.00
2013-10-25,70,55,42,50,42,35,80,64,42,28.91,28.67,15,4,15,0.00
2013-10-26,78,62,53,63,53,45,99,75,37,28.69,28.53,24,5,24,0.02
2013-10-27,75,58,42,52,38,12,86,55,11,28.67,28.46,11,3,11,0.00
2013-10-28,71,62,52,67,60,52,99,94,85,28.54,28.40,23,7,23,0.00
2013-10-29,69,68,68,66,66,65,93,91,89,28.47,28.43,19,11,19,0.00
2013-10-30,77,73,66,69,68,64,97,84,76,28.28,28.22,25,7,25,0.17
2013-10-31,72,62,53,65,45,32,96,58,25,28.38,28.17,30,8,30,0.30